createdAt,value
2019-02-04T00:02:28.480Z,0.50
2019-02-04T00:05:09.820Z,0.50
2019-02-04T00:07:50.588Z,0.50
2019-02-04T00:10:31.326Z,0.50
2019-02-04T00:13:12.760Z,0.50
2019-02-04T00:15:53.394Z,0.50
2019-02-04T00:18:34.400Z,0.50
2019-02-04T00:21:15.962Z,0.50
2019-02-04T00:23:56.620Z,0.50
2019-02-04T00:26:37.458Z,0.40
2019-02-04T00:29:18.140Z,0.40
2019-02-04T00:31:58.902Z,0.40
2019-02-04T00:34:39.498Z,0.40
2019-02-04T00:37:20.090Z,0.40
2019-02-04T00:40:01.566Z,0.40
2019-02-04T00:42:42.610Z,0.40
2019-02-04T00:45:23.280Z,0.40
2019-02-04T00:48:04.697Z,0.40
2019-02-04T00:50:45.419Z,0.40
2019-02-04T00:53:26.176Z,0.40
2019-02-04T00:56:07.357Z,0.30
2019-02-04T00:58:47.957Z,0.30
2019-02-04T01:01:28.902Z,0.30
2019-02-04T01:04:09.862Z,0.30
2019-02-04T01:06:50.487Z,0.30
2019-02-04T01:09:31.146Z,0.20
2019-02-04T01:12:11.879Z,0.30
2019-02-04T01:17:51.993Z,0.10
2019-02-04T01:20:32.721Z,0.10
2019-02-04T01:23:14.006Z,0.20
2019-02-04T01:25:55.083Z,0.20
2019-02-04T01:28:35.909Z,0.20
2019-02-04T01:31:16.656Z,0.20
2019-02-04T01:33:57.955Z,0.20
2019-02-04T01:36:38.893Z,0.20
2019-02-04T01:39:19.487Z,0.20
2019-02-04T01:45:20.169Z,0.20
2019-02-04T01:48:01.122Z,0.20
2019-02-04T01:50:42.419Z,0.20
2019-02-04T01:53:23.134Z,0.20
2019-02-04T01:56:03.849Z,0.20
2019-02-04T01:58:44.691Z,0.20
2019-02-04T02:01:25.544Z,0.20
2019-02-04T02:07:19.149Z,0.10
2019-02-04T02:10:00.755Z,0.10
2019-02-04T02:12:43.540Z,0.10
2019-02-04T02:15:23.240Z,0.10
2019-02-04T02:18:11.627Z,0.00
2019-02-04T02:20:52.204Z,0.00
2019-02-04T02:23:33.612Z,0.00
2019-02-04T02:26:14.363Z,0.00
2019-02-04T02:28:55.676Z,-0.10
2019-02-04T02:31:36.190Z,-0.10
2019-02-04T02:34:16.798Z,-0.10
2019-02-04T02:36:57.400Z,-0.10
2019-02-04T02:39:38.667Z,0.00
2019-02-04T02:42:19.853Z,0.00
2019-02-04T02:45:01.311Z,0.00
2019-02-04T02:47:42.142Z,0.00
2019-02-04T02:50:23.234Z,0.00
2019-02-04T02:53:03.966Z,0.00
2019-02-04T02:55:45.014Z,0.00
2019-02-04T02:58:24.579Z,0.00
2019-02-04T03:01:12.783Z,0.00
2019-02-04T03:03:55.592Z,0.00
2019-02-04T03:06:36.732Z,0.00
2019-02-04T03:09:09.847Z,0.00
2019-02-04T03:11:58.444Z,0.00
2019-02-04T03:14:28.112Z,0.00
2019-02-04T03:16:57.448Z,0.00
2019-02-04T03:19:45.768Z,0.10
2019-02-04T03:22:27.118Z,0.10
2019-02-04T03:25:07.781Z,0.10
2019-02-04T03:27:49.061Z,0.10
2019-02-04T03:30:29.896Z,0.10
2019-02-04T03:33:10.499Z,0.10
2019-02-04T03:35:51.450Z,0.10
2019-02-04T03:38:34.122Z,0.10
2019-02-04T03:41:15.166Z,0.10
2019-02-04T03:43:57.306Z,0.10
2019-02-04T03:46:38.585Z,0.10
2019-02-04T03:49:19.889Z,0.10
2019-02-04T03:52:00.573Z,0.10
2019-02-04T03:54:40.067Z,0.20
2019-02-04T03:57:20.660Z,0.10
2019-02-04T04:00:01.374Z,0.10
2019-02-04T04:02:42.029Z,0.10
2019-02-04T04:05:22.477Z,0.10
2019-02-04T04:11:11.441Z,0.20
2019-02-04T04:13:52.657Z,0.10
2019-02-04T04:16:33.657Z,0.20
2019-02-04T04:19:14.137Z,0.10
2019-02-04T04:21:55.265Z,0.20
2019-02-04T04:24:36.063Z,0.20
2019-02-04T04:27:16.687Z,0.20
2019-02-04T04:29:57.601Z,0.20
2019-02-04T04:32:38.907Z,0.20
2019-02-04T04:35:19.823Z,0.20
2019-02-04T04:38:00.606Z,0.20
2019-02-04T04:40:41.764Z,0.20
2019-02-04T04:43:23.216Z,0.20
2019-02-04T04:46:03.924Z,0.20
2019-02-04T04:48:44.524Z,0.20
2019-02-04T04:51:26.105Z,0.20
2019-02-04T04:54:06.768Z,0.20
2019-02-04T04:56:47.612Z,0.20
2019-02-04T04:59:29.301Z,0.20
2019-02-04T05:02:10.233Z,0.20
2019-02-04T05:04:49.774Z,0.20
2019-02-04T05:07:38.447Z,0.20
2019-02-04T05:10:19.328Z,0.20
2019-02-04T05:13:00.689Z,0.20
2019-02-04T05:15:41.485Z,0.20
2019-02-04T05:18:22.872Z,0.30
2019-02-04T05:21:04.367Z,0.30
2019-02-04T05:23:45.734Z,0.20
2019-02-04T05:26:26.250Z,0.20
2019-02-04T05:29:07.066Z,0.30
2019-02-04T05:31:47.832Z,0.30
2019-02-04T05:34:27.085Z,0.30
2019-02-04T05:37:07.642Z,0.30
2019-02-04T05:39:48.306Z,0.30
2019-02-04T05:42:29.034Z,0.30
2019-02-04T05:45:08.870Z,0.30
2019-02-04T05:47:50.510Z,0.40
2019-02-04T05:50:31.446Z,0.30
2019-02-04T05:53:12.251Z,0.30
2019-02-04T05:55:53.968Z,0.40
2019-02-04T05:58:34.606Z,0.40
2019-02-04T06:01:15.451Z,0.40
2019-02-04T06:03:54.872Z,0.40
2019-02-04T06:06:35.689Z,0.30
2019-02-04T06:09:16.601Z,0.30
2019-02-04T06:11:57.465Z,0.30
2019-02-04T06:14:38.613Z,0.30
2019-02-04T06:17:19.581Z,0.30
2019-02-04T06:20:02.873Z,0.40
2019-02-04T06:22:42.777Z,0.40
2019-02-04T06:25:24.769Z,0.40
2019-02-04T06:31:10.281Z,0.50
2019-02-04T06:33:51.113Z,0.50
2019-02-04T06:36:32.191Z,0.40
2019-02-04T06:39:13.167Z,0.40
2019-02-04T06:41:54.411Z,0.40
2019-02-04T06:44:35.053Z,0.40
2019-02-04T06:47:15.985Z,0.40
2019-02-04T06:49:56.846Z,0.50
2019-02-04T06:52:39.028Z,0.40
2019-02-04T06:55:19.869Z,0.50
2019-02-04T06:58:02.578Z,0.80
2019-02-04T07:00:41.975Z,0.70
2019-02-04T07:03:24.695Z,0.70
2019-02-04T07:06:06.234Z,0.70
2019-02-04T07:08:47.138Z,0.60
2019-02-04T07:11:26.622Z,0.60
2019-02-04T07:14:07.620Z,0.70
2019-02-04T07:16:49.123Z,0.70
2019-02-04T07:19:29.770Z,0.70
2019-02-04T07:22:11.258Z,0.70
2019-02-04T07:24:52.454Z,0.70
2019-02-04T07:27:33.759Z,0.70
2019-02-04T07:30:14.693Z,0.70
2019-02-04T07:32:55.340Z,0.70
2019-02-04T07:35:35.931Z,0.70
2019-02-04T07:38:17.392Z,0.70
2019-02-04T07:40:58.300Z,0.70
2019-02-04T07:43:39.626Z,0.70
2019-02-04T07:46:20.274Z,0.70
2019-02-04T07:51:43.788Z,0.70
2019-02-04T07:54:25.173Z,0.80
2019-02-04T07:57:06.141Z,0.80
2019-02-04T07:59:47.415Z,0.80
2019-02-04T08:02:28.730Z,0.90
2019-02-04T08:07:42.447Z,1.00
2019-02-04T08:10:11.989Z,1.00
2019-02-04T08:13:01.930Z,1.00
2019-02-04T08:15:50.520Z,1.00
2019-02-04T08:18:31.380Z,1.00
2019-02-04T08:21:12.238Z,1.10
2019-02-04T08:23:52.877Z,1.10
2019-02-04T08:26:34.264Z,1.10
2019-02-04T08:29:15.595Z,1.20
2019-02-04T08:31:56.555Z,1.30
2019-02-04T08:34:37.493Z,1.30
2019-02-04T08:37:19.032Z,1.30
2019-02-04T08:40:00.335Z,1.40
2019-02-04T08:42:41.785Z,1.40
2019-02-04T08:45:23.404Z,1.50
2019-02-04T08:48:04.959Z,1.60
2019-02-04T08:50:46.367Z,1.60
2019-02-04T08:53:27.940Z,1.60
2019-02-04T08:55:57.571Z,1.70
2019-02-04T08:58:46.074Z,1.70
2019-02-04T09:01:27.304Z,1.80
2019-02-04T09:04:07.924Z,1.80
2019-02-04T09:06:49.354Z,1.90
2019-02-04T09:09:30.130Z,1.90
2019-02-04T09:12:11.660Z,2.00
2019-02-04T09:14:52.476Z,2.00
2019-02-04T09:17:33.974Z,2.10
2019-02-04T09:20:14.704Z,2.10
2019-02-04T09:22:55.913Z,2.20
2019-02-04T09:25:36.594Z,2.20
2019-02-04T09:28:18.270Z,2.30
2019-02-04T09:30:59.390Z,2.30
2019-02-04T09:33:41.748Z,2.40
2019-02-04T09:36:23.012Z,2.40
2019-02-04T09:39:05.450Z,2.50
2019-02-04T09:41:46.467Z,2.50
2019-02-04T09:44:27.968Z,2.50
2019-02-04T09:47:09.507Z,2.60
2019-02-04T09:49:50.633Z,2.60
2019-02-04T09:52:31.828Z,2.70
2019-02-04T09:55:13.273Z,2.70
2019-02-04T09:57:54.888Z,2.80
2019-02-04T10:00:35.463Z,2.90
2019-02-04T10:03:26.982Z,2.90
2019-02-04T10:06:08.410Z,3.00
2019-02-04T10:08:49.133Z,3.00
2019-02-04T10:11:29.845Z,3.10
2019-02-04T10:14:11.157Z,3.10
2019-02-04T10:16:51.887Z,3.20
2019-02-04T10:19:33.228Z,3.20
2019-02-04T10:25:01.030Z,3.30
2019-02-04T10:27:42.532Z,3.30
2019-02-04T10:30:23.324Z,3.40
2019-02-04T10:33:04.894Z,3.40
2019-02-04T10:35:47.103Z,3.40
2019-02-04T10:38:28.001Z,3.50
2019-02-04T10:41:07.969Z,3.60
2019-02-04T10:43:56.432Z,3.60
2019-02-04T10:46:40.343Z,3.70
2019-02-04T10:49:21.103Z,3.80
2019-02-04T10:52:02.562Z,3.90
2019-02-04T10:54:44.063Z,4.00
2019-02-04T10:57:27.197Z,4.00
2019-02-04T11:00:10.988Z,4.10
2019-02-04T11:02:52.029Z,4.20
2019-02-04T11:05:34.840Z,4.20
2019-02-04T11:08:16.051Z,4.30
2019-02-04T11:14:02.194Z,4.30
2019-02-04T11:16:44.178Z,4.40
2019-02-04T11:19:28.658Z,4.40
2019-02-04T11:22:11.831Z,4.40
2019-02-04T11:24:57.220Z,4.50
2019-02-04T11:30:53.720Z,4.50
2019-02-04T11:33:35.879Z,4.40
2019-02-04T11:36:17.144Z,4.50
2019-02-04T11:38:58.780Z,4.50
2019-02-04T11:41:40.143Z,4.40
2019-02-04T11:44:21.991Z,4.40
2019-02-04T11:47:08.407Z,4.40
2019-02-04T11:52:35.634Z,4.40
2019-02-04T11:58:07.697Z,4.40
2019-02-04T12:00:48.176Z,4.40
2019-02-04T12:03:32.191Z,4.30
2019-02-04T12:06:13.351Z,4.40
2019-02-04T12:08:55.130Z,4.40
2019-02-04T12:11:36.584Z,4.40
2019-02-04T12:14:18.099Z,4.40
2019-02-04T12:17:02.270Z,4.40
2019-02-04T12:22:26.028Z,4.40
2019-02-04T12:25:07.136Z,4.40
2019-02-04T12:27:48.622Z,4.40
2019-02-04T12:30:31.035Z,4.40
2019-02-04T12:33:12.175Z,4.30
2019-02-04T12:35:53.613Z,4.40
2019-02-04T12:38:35.014Z,4.40
2019-02-04T12:41:17.503Z,4.40
2019-02-04T12:43:58.730Z,4.40
2019-02-04T12:46:38.223Z,4.40
2019-02-04T12:49:21.223Z,4.40
2019-02-04T12:52:01.869Z,4.40
2019-02-04T12:54:40.535Z,4.40
2019-02-04T12:57:16.135Z,4.30
2019-02-04T12:59:45.531Z,4.30
2019-02-04T13:02:15.042Z,4.30
2019-02-04T13:04:45.396Z,4.30
2019-02-04T13:07:14.919Z,4.30
2019-02-04T13:10:03.457Z,4.40
2019-02-04T13:12:52.080Z,4.40
2019-02-04T13:15:33.271Z,4.40
2019-02-04T13:18:13.877Z,4.40
2019-02-04T13:20:54.947Z,4.40
2019-02-04T13:23:35.608Z,4.40
2019-02-04T13:26:16.469Z,4.50
2019-02-04T13:32:10.347Z,4.50
2019-02-04T13:34:51.203Z,4.50
2019-02-04T13:37:32.712Z,4.50
2019-02-04T13:40:13.934Z,4.60
2019-02-04T13:42:55.179Z,4.60
2019-02-04T13:45:36.468Z,4.60
2019-02-04T13:48:16.086Z,4.60
2019-02-04T13:54:11.172Z,4.60
2019-02-04T13:56:52.215Z,4.60
2019-02-04T13:59:33.349Z,4.60
2019-02-04T14:02:14.871Z,4.60
2019-02-04T14:04:56.558Z,4.60
2019-02-04T14:07:37.740Z,4.60
2019-02-04T14:10:19.224Z,4.70
2019-02-04T14:12:48.772Z,4.70
2019-02-04T14:24:44.833Z,4.70
2019-02-04T14:27:25.842Z,4.70
2019-02-04T14:30:07.134Z,4.70
2019-02-04T14:32:48.391Z,4.60
2019-02-04T14:35:29.034Z,4.60
2019-02-04T14:38:09.712Z,4.60
2019-02-04T14:40:51.054Z,4.60
2019-02-04T14:43:32.490Z,4.60
2019-02-04T14:46:13.515Z,4.60
2019-02-04T14:48:54.928Z,4.50
2019-02-04T14:51:36.362Z,4.40
2019-02-04T14:54:17.154Z,4.20
2019-02-04T14:56:57.674Z,4.10
2019-02-04T14:59:38.636Z,4.10
2019-02-04T15:02:19.223Z,4.00
2019-02-04T15:05:00.604Z,4.00
2019-02-04T15:10:24.423Z,3.90
2019-02-04T15:13:08.198Z,3.90
2019-02-04T15:15:47.311Z,3.80
2019-02-04T15:18:28.182Z,3.70
2019-02-04T15:21:08.895Z,3.70
2019-02-04T15:24:09.086Z,3.70
2019-02-04T15:26:50.644Z,3.60
2019-02-04T15:29:31.990Z,3.60
2019-02-04T15:32:13.019Z,3.60
2019-02-04T15:35:04.229Z,3.60
2019-02-04T15:37:37.321Z,3.60
2019-02-04T15:40:18.952Z,3.60
2019-02-04T15:43:00.419Z,3.60
2019-02-04T15:45:41.698Z,3.60
2019-02-04T15:51:05.745Z,3.60
2019-02-04T15:53:46.608Z,3.70
2019-02-04T15:56:27.627Z,3.70
2019-02-04T15:59:09.396Z,3.70
2019-02-04T16:01:50.695Z,3.70
2019-02-04T16:04:32.258Z,3.70
2019-02-04T16:07:16.098Z,3.80
2019-02-04T16:10:00.358Z,3.80
2019-02-04T16:12:42.469Z,3.80
2019-02-04T16:15:24.873Z,3.80
2019-02-04T16:18:08.224Z,3.80
2019-02-04T16:20:50.659Z,3.80
2019-02-04T16:23:41.844Z,3.80
2019-02-04T16:26:08.157Z,3.80
2019-02-04T16:28:49.583Z,3.80
2019-02-04T16:31:31.552Z,3.80
2019-02-04T16:37:19.432Z,3.80
2019-02-04T16:40:03.036Z,3.70
2019-02-04T16:42:45.870Z,3.70
2019-02-04T16:45:27.851Z,3.70
2019-02-04T16:48:10.917Z,3.70
2019-02-04T16:51:10.668Z,3.70
2019-02-04T16:53:37.096Z,3.70
2019-02-04T16:56:19.866Z,3.80
2019-02-04T16:59:02.877Z,3.80
2019-02-04T17:01:45.408Z,3.80
2019-02-04T17:04:28.114Z,3.80
2019-02-04T17:07:13.880Z,3.80
2019-02-04T17:09:57.367Z,3.80
2019-02-04T17:15:57.940Z,3.70
2019-02-04T17:18:39.280Z,3.70
2019-02-04T17:21:20.982Z,3.70
2019-02-04T17:24:02.068Z,3.70
2019-02-04T17:26:42.981Z,3.70
2019-02-04T17:29:24.341Z,3.70
2019-02-04T17:32:05.110Z,3.60
2019-02-04T17:34:47.378Z,3.60
2019-02-04T17:37:28.937Z,3.60
2019-02-04T17:40:10.205Z,3.50
2019-02-04T17:42:51.065Z,3.50
2019-02-04T17:45:31.798Z,3.50
2019-02-04T17:48:12.979Z,3.50
2019-02-04T17:50:53.637Z,3.50
2019-02-04T17:53:34.633Z,3.50
2019-02-04T17:56:15.882Z,3.50
2019-02-04T17:58:57.042Z,3.30
2019-02-04T18:04:20.460Z,3.50
2019-02-04T18:06:50.015Z,3.50
2019-02-04T18:09:58.961Z,3.50
2019-02-04T18:16:12.152Z,3.40
2019-02-04T18:18:52.875Z,3.40
2019-02-04T18:21:33.750Z,3.40
2019-02-04T18:24:15.337Z,3.40
2019-02-04T18:26:56.565Z,3.40
2019-02-04T18:29:38.043Z,3.30
2019-02-04T18:32:19.271Z,3.30
2019-02-04T18:35:00.600Z,3.30
2019-02-04T18:37:40.514Z,3.30
2019-02-04T18:43:52.612Z,3.20
2019-02-04T18:46:33.831Z,3.20
2019-02-04T18:49:14.736Z,3.20
2019-02-04T18:51:55.318Z,3.10
2019-02-04T18:54:37.104Z,3.10
2019-02-04T18:57:18.534Z,3.10
2019-02-04T18:59:59.298Z,3.10
2019-02-04T19:02:40.536Z,3.00
2019-02-04T19:05:21.454Z,3.00
2019-02-04T19:08:02.390Z,3.00
2019-02-04T19:10:43.226Z,3.00
2019-02-04T19:13:35.474Z,3.00
2019-02-04T19:16:06.890Z,3.00
2019-02-04T19:18:47.936Z,3.00
2019-02-04T19:21:29.416Z,3.00
2019-02-04T19:24:10.952Z,3.00
2019-02-04T19:26:54.002Z,2.90
2019-02-04T19:29:34.261Z,2.90
2019-02-04T19:32:15.410Z,2.90
2019-02-04T19:34:55.876Z,2.90
2019-02-04T19:37:36.954Z,2.90
2019-02-04T19:40:18.334Z,2.90
2019-02-04T19:42:58.967Z,2.90
2019-02-04T19:45:40.033Z,2.90
2019-02-04T19:48:20.859Z,2.90
2019-02-04T19:51:00.375Z,2.90
2019-02-04T19:53:48.643Z,2.90
2019-02-04T19:56:37.015Z,2.90
2019-02-04T19:59:21.169Z,2.90
2019-02-04T20:02:00.831Z,2.90
2019-02-04T20:04:43.132Z,2.90
2019-02-04T20:07:24.339Z,2.90
2019-02-04T20:10:05.132Z,2.90
2019-02-04T20:12:45.799Z,2.90
2019-02-04T20:15:27.085Z,2.90
2019-02-04T20:18:07.873Z,2.90
2019-02-04T20:20:50.445Z,2.90
2019-02-04T20:23:31.207Z,2.90
2019-02-04T20:26:11.798Z,2.90
2019-02-04T20:28:52.576Z,2.90
2019-02-04T20:31:33.877Z,2.90
2019-02-04T20:34:15.452Z,2.90
2019-02-04T20:36:56.939Z,2.90
2019-02-04T20:42:20.365Z,2.90
2019-02-04T20:48:14.642Z,3.00
2019-02-04T20:50:55.333Z,3.00
2019-02-04T20:53:36.666Z,3.00
2019-02-04T20:56:17.916Z,3.10
2019-02-04T20:58:59.245Z,3.10
2019-02-04T21:01:40.986Z,3.00
2019-02-04T21:04:22.424Z,3.10
2019-02-04T21:07:03.054Z,3.00
2019-02-04T21:09:44.828Z,3.10
2019-02-04T21:12:26.038Z,3.10
2019-02-04T21:15:07.158Z,3.10
2019-02-04T21:17:48.560Z,3.10
2019-02-04T21:20:29.584Z,3.10
2019-02-04T21:23:09.085Z,3.10
2019-02-04T21:25:49.804Z,3.10
2019-02-04T21:28:30.702Z,3.10
2019-02-04T21:31:11.855Z,3.10
2019-02-04T21:33:53.262Z,3.10
2019-02-04T21:36:35.398Z,3.10
2019-02-04T21:39:16.730Z,3.10
2019-02-04T21:41:57.824Z,3.10
2019-02-04T21:44:38.560Z,3.10
2019-02-04T21:47:19.166Z,3.10
2019-02-04T21:50:01.501Z,3.10
2019-02-04T21:52:42.388Z,3.10
2019-02-04T21:55:22.884Z,3.10
2019-02-04T21:58:03.545Z,3.10
2019-02-04T22:00:44.204Z,3.20
2019-02-04T22:03:25.319Z,3.20
2019-02-04T22:06:06.639Z,3.10
2019-02-04T22:11:46.613Z,3.10
2019-02-04T22:14:27.641Z,3.10
2019-02-04T22:17:08.178Z,3.10
2019-02-04T22:19:47.617Z,3.10
2019-02-04T22:22:36.209Z,3.10
2019-02-04T22:25:19.892Z,3.10
2019-02-04T22:28:00.854Z,3.10
2019-02-04T22:33:49.889Z,3.10
2019-02-04T22:39:13.337Z,3.10
2019-02-04T22:41:54.148Z,3.10
2019-02-04T22:47:39.974Z,3.10
2019-02-04T22:50:20.784Z,3.10
2019-02-04T22:53:02.640Z,3.10
2019-02-04T22:55:43.618Z,3.10
2019-02-04T22:58:24.489Z,3.10
2019-02-04T23:01:05.138Z,3.10
2019-02-04T23:03:46.154Z,3.10
2019-02-04T23:06:26.789Z,3.10
2019-02-04T23:09:07.702Z,3.10
2019-02-04T23:11:49.456Z,3.10
2019-02-04T23:14:30.636Z,3.10
2019-02-04T23:17:00.894Z,3.10
2019-02-04T23:19:30.342Z,3.10
2019-02-04T23:21:59.849Z,3.10
2019-02-04T23:24:48.245Z,3.10
2019-02-04T23:27:36.786Z,3.10
2019-02-04T23:30:17.766Z,3.10
2019-02-04T23:32:58.310Z,3.10
2019-02-04T23:35:39.524Z,3.10
2019-02-04T23:38:20.850Z,3.10
2019-02-04T23:41:01.756Z,3.10
2019-02-04T23:43:42.766Z,3.10
2019-02-04T23:46:23.822Z,3.10
2019-02-04T23:49:04.596Z,3.10
2019-02-04T23:51:47.436Z,3.10
2019-02-04T23:54:28.272Z,3.20
